createdAt,value
2018-02-16T00:02:03.324Z,48.03
2018-02-16T00:04:31.395Z,50.83
2018-02-16T00:06:59.650Z,45.53
2018-02-16T00:09:27.918Z,43.87
2018-02-16T00:11:56.198Z,49.30
2018-02-16T00:14:24.449Z,41.17
2018-02-16T00:16:52.761Z,46.43
2018-02-16T00:19:21.025Z,46.37
2018-02-16T00:21:49.293Z,43.53
2018-02-16T00:24:17.557Z,52.20
2018-02-16T00:26:45.806Z,51.07
2018-02-16T00:29:14.051Z,48.33
2018-02-16T00:31:42.319Z,37.67
2018-02-16T00:34:10.582Z,44.60
2018-02-16T00:36:38.870Z,44.63
2018-02-16T00:39:07.130Z,45.87
2018-02-16T00:41:35.381Z,42.63
2018-02-16T00:44:03.657Z,53.87
2018-02-16T00:46:31.909Z,48.60
2018-02-16T00:49:01.070Z,39.43
2018-02-16T00:51:29.326Z,52.97
2018-02-16T00:53:57.579Z,46.97
2018-02-16T00:56:25.840Z,43.77
2018-02-16T00:58:54.110Z,46.63
2018-02-16T01:01:22.362Z,45.60
2018-02-16T01:03:50.613Z,43.03
2018-02-16T01:06:19.650Z,50.27
2018-02-16T01:08:47.903Z,43.40
2018-02-16T01:11:16.268Z,51.53
2018-02-16T01:13:44.543Z,43.50
2018-02-16T01:16:13.530Z,39.13
2018-02-16T01:18:41.802Z,41.00
2018-02-16T01:21:10.049Z,39.50
2018-02-16T01:23:38.318Z,37.67
2018-02-16T01:26:06.572Z,40.57
2018-02-16T01:28:34.817Z,41.90
2018-02-16T01:31:03.084Z,45.80
2018-02-16T01:33:31.347Z,41.00
2018-02-16T01:35:59.597Z,39.83
2018-02-16T01:38:27.853Z,36.53
2018-02-16T01:40:56.125Z,36.43
2018-02-16T01:43:24.413Z,44.83
2018-02-16T01:45:52.703Z,41.10
2018-02-16T01:48:20.943Z,39.67
2018-02-16T01:50:49.228Z,43.23
2018-02-16T01:53:18.998Z,35.47
2018-02-16T01:55:47.271Z,35.43
2018-02-16T01:58:15.517Z,43.90
2018-02-16T02:00:43.770Z,41.67
2018-02-16T02:03:12.033Z,39.03
2018-02-16T02:05:40.286Z,35.90
2018-02-16T02:08:08.533Z,38.17
2018-02-16T02:10:37.335Z,45.60
2018-02-16T02:13:05.643Z,41.07
2018-02-16T02:15:33.900Z,39.07
2018-02-16T02:18:02.156Z,56.77
2018-02-16T02:20:30.409Z,42.07
2018-02-16T02:22:58.677Z,39.47
2018-02-16T02:25:26.931Z,38.77
2018-02-16T02:27:55.186Z,41.20
2018-02-16T02:30:23.458Z,43.20
2018-02-16T02:32:51.714Z,56.10
2018-02-16T02:35:20.255Z,57.57
2018-02-16T02:37:48.507Z,46.27
2018-02-16T02:40:16.771Z,36.40
2018-02-16T02:42:45.028Z,38.20
2018-02-16T02:45:13.284Z,38.90
2018-02-16T02:47:41.538Z,42.70
2018-02-16T02:50:11.260Z,33.03
2018-02-16T02:52:39.524Z,37.67
2018-02-16T02:55:09.562Z,37.80
2018-02-16T02:57:37.818Z,35.50
2018-02-16T03:00:09.180Z,31.70
2018-02-16T03:02:37.436Z,37.10
2018-02-16T03:05:07.961Z,36.77
2018-02-16T03:07:36.206Z,31.50
2018-02-16T03:10:05.740Z,29.87
2018-02-16T03:12:36.161Z,33.27
2018-02-16T03:15:05.161Z,35.83
2018-02-16T03:17:33.419Z,31.13
2018-02-16T03:20:01.669Z,23.93
2018-02-16T03:22:29.933Z,35.50
2018-02-16T03:24:58.190Z,26.90
2018-02-16T03:27:26.442Z,24.87
2018-02-16T03:29:55.431Z,26.00
2018-02-16T03:32:24.202Z,25.57
2018-02-16T03:34:52.454Z,39.97
2018-02-16T03:37:21.371Z,27.60
2018-02-16T03:39:49.683Z,34.83
2018-02-16T03:42:17.930Z,25.30
2018-02-16T03:44:46.183Z,32.13
2018-02-16T03:47:14.438Z,27.90
2018-02-16T03:49:43.002Z,30.93
2018-02-16T03:52:11.282Z,26.83
2018-02-16T03:54:39.532Z,32.33
2018-02-16T03:57:07.783Z,28.60
2018-02-16T03:59:36.762Z,29.97
2018-02-16T04:02:05.025Z,32.57
2018-02-16T04:04:33.279Z,29.60
2018-02-16T04:07:02.622Z,33.27
2018-02-16T04:09:30.873Z,32.33
2018-02-16T04:11:59.134Z,35.43
2018-02-16T04:14:27.382Z,29.23
2018-02-16T04:16:55.631Z,31.57
2018-02-16T04:19:23.881Z,28.93
2018-02-16T04:21:52.153Z,32.03
2018-02-16T04:24:20.406Z,25.57
2018-02-16T04:26:48.658Z,27.33
2018-02-16T04:29:16.911Z,28.60
2018-02-16T04:31:45.162Z,24.27
2018-02-16T04:34:13.415Z,31.73
2018-02-16T04:36:41.662Z,27.03
2018-02-16T04:39:09.913Z,29.00
2018-02-16T04:41:38.169Z,26.27
2018-02-16T04:44:06.425Z,25.17
2018-02-16T04:46:34.670Z,31.57
2018-02-16T04:49:02.919Z,29.03
2018-02-16T04:51:32.006Z,27.77
2018-02-16T04:54:00.541Z,30.23
2018-02-16T04:56:29.020Z,29.77
2018-02-16T04:58:57.907Z,28.07
2018-02-16T05:01:26.152Z,26.17
2018-02-16T05:03:54.433Z,28.90
2018-02-16T05:06:23.073Z,30.67
2018-02-16T05:08:51.320Z,33.90
2018-02-16T05:11:19.577Z,36.43
2018-02-16T05:13:47.827Z,30.63
2018-02-16T05:16:16.097Z,29.70
2018-02-16T05:18:44.346Z,32.43
2018-02-16T05:21:12.617Z,35.37
2018-02-16T05:23:40.865Z,37.50
2018-02-16T05:26:09.117Z,37.53
2018-02-16T05:28:37.408Z,37.77
2018-02-16T05:31:05.715Z,33.57
2018-02-16T05:33:33.964Z,38.53
2018-02-16T05:36:02.230Z,36.70
2018-02-16T05:38:30.493Z,50.87
2018-02-16T05:40:58.745Z,42.27
2018-02-16T05:43:26.995Z,36.27
2018-02-16T05:45:55.293Z,40.67
2018-02-16T05:48:23.358Z,41.80
2018-02-16T05:50:51.607Z,37.83
2018-02-16T05:53:19.868Z,41.53
2018-02-16T05:55:48.137Z,35.07
2018-02-16T05:58:16.385Z,44.77
2018-02-16T06:00:44.657Z,50.30
2018-02-16T06:03:13.870Z,47.13
2018-02-16T06:05:42.128Z,42.13
2018-02-16T06:08:10.379Z,38.73
2018-02-16T06:10:38.627Z,47.33
2018-02-16T06:13:06.885Z,56.67
2018-02-16T06:15:35.137Z,43.27
2018-02-16T06:18:03.417Z,55.33
2018-02-16T06:20:31.666Z,55.80
2018-02-16T06:22:59.933Z,54.87
2018-02-16T06:25:28.193Z,55.83
2018-02-16T06:27:56.465Z,49.07
2018-02-16T06:30:24.722Z,53.67
2018-02-16T06:32:52.973Z,48.10
2018-02-16T06:35:21.257Z,46.77
2018-02-16T06:37:49.522Z,52.37
2018-02-16T06:40:17.775Z,60.97
2018-02-16T06:42:46.031Z,42.33
2018-02-16T06:45:14.289Z,49.30
2018-02-16T06:47:42.554Z,50.20
2018-02-16T06:50:10.826Z,54.73
2018-02-16T06:52:39.081Z,45.47
2018-02-16T06:55:08.347Z,49.27
2018-02-16T06:57:36.617Z,55.67
2018-02-16T07:00:06.901Z,49.57
2018-02-16T07:02:35.194Z,67.77
2018-02-16T07:05:03.452Z,44.93
2018-02-16T07:07:31.727Z,48.83
2018-02-16T07:09:59.986Z,57.47
2018-02-16T07:12:31.031Z,52.37
2018-02-16T07:14:59.938Z,48.87
2018-02-16T07:17:28.197Z,49.53
2018-02-16T07:19:56.809Z,53.73
2018-02-16T07:22:25.073Z,44.53
2018-02-16T07:24:53.349Z,57.83
2018-02-16T07:27:21.597Z,51.57
2018-02-16T07:29:49.855Z,52.80
2018-02-16T07:32:18.922Z,52.17
2018-02-16T07:34:47.548Z,55.43
2018-02-16T07:37:16.174Z,54.20
2018-02-16T07:39:44.438Z,59.33
2018-02-16T07:42:12.694Z,56.07
2018-02-16T07:44:41.583Z,53.80
2018-02-16T07:47:09.834Z,57.67
2018-02-16T07:49:38.100Z,50.20
2018-02-16T07:52:06.569Z,50.00
2018-02-16T07:54:34.829Z,53.60
2018-02-16T07:57:03.105Z,56.00
2018-02-16T07:59:31.366Z,56.57
2018-02-16T08:01:59.628Z,58.53
2018-02-16T08:04:27.894Z,66.00
2018-02-16T08:06:56.146Z,69.63
2018-02-16T08:09:24.413Z,59.53
2018-02-16T08:11:52.666Z,54.00
2018-02-16T08:14:20.919Z,67.50
2018-02-16T08:16:49.177Z,69.47
2018-02-16T08:19:17.434Z,62.40
2018-02-16T08:21:45.941Z,65.00
2018-02-16T08:24:14.208Z,60.57
2018-02-16T08:26:42.465Z,57.70
2018-02-16T08:29:10.726Z,67.67
2018-02-16T08:31:38.982Z,60.77
2018-02-16T08:34:07.246Z,62.20
2018-02-16T08:36:35.502Z,71.30
2018-02-16T08:39:03.431Z,69.00
2018-02-16T08:41:31.690Z,62.30
2018-02-16T08:43:59.958Z,77.63
2018-02-16T08:46:28.218Z,73.50
2018-02-16T08:48:56.515Z,61.90
2018-02-16T08:51:24.933Z,59.27
2018-02-16T08:53:53.201Z,61.60
2018-02-16T08:56:21.459Z,72.70
2018-02-16T08:58:49.753Z,63.67
2018-02-16T09:01:18.023Z,82.93
2018-02-16T09:03:46.106Z,66.30
2018-02-16T09:06:14.376Z,70.93
2018-02-16T09:08:42.647Z,60.77
2018-02-16T09:11:10.903Z,68.10
2018-02-16T09:13:39.166Z,67.77
2018-02-16T09:16:07.426Z,74.17
2018-02-16T09:18:35.681Z,69.90
2018-02-16T09:21:03.944Z,75.43
2018-02-16T09:23:32.215Z,65.60
2018-02-16T09:26:00.495Z,61.70
2018-02-16T09:28:28.755Z,74.33
2018-02-16T09:30:57.025Z,63.30
2018-02-16T09:33:25.275Z,58.50
2018-02-16T09:35:54.020Z,56.20
2018-02-16T09:38:22.288Z,58.37
2018-02-16T09:40:50.550Z,56.83
2018-02-16T09:43:18.816Z,48.73
2018-02-16T09:45:47.073Z,62.40
2018-02-16T09:48:15.370Z,47.63
2018-02-16T09:50:43.638Z,46.13
2018-02-16T09:53:11.906Z,37.23
2018-02-16T09:55:40.165Z,37.67
2018-02-16T09:58:08.431Z,43.40
2018-02-16T10:00:36.716Z,40.13
2018-02-16T10:03:04.977Z,42.33
2018-02-16T10:05:33.237Z,47.47
2018-02-16T10:08:01.500Z,41.83
2018-02-16T10:10:29.758Z,40.73
2018-02-16T10:12:58.409Z,37.57
2018-02-16T10:15:26.682Z,50.57
2018-02-16T10:17:54.937Z,39.37
2018-02-16T10:20:23.023Z,36.20
2018-02-16T10:22:51.291Z,43.07
2018-02-16T10:25:19.550Z,32.33
2018-02-16T10:27:47.815Z,31.30
2018-02-16T10:30:16.076Z,20.53
2018-02-16T10:32:44.334Z,15.00
2018-02-16T10:35:12.601Z,17.27
2018-02-16T10:37:40.858Z,14.57
2018-02-16T10:40:09.650Z,13.53
2018-02-16T10:42:37.897Z,12.70
2018-02-16T10:45:08.786Z,14.23
2018-02-16T10:47:37.047Z,17.27
2018-02-16T10:50:07.303Z,16.30
2018-02-16T10:52:35.570Z,18.07
2018-02-16T10:55:04.611Z,14.63
2018-02-16T10:57:33.186Z,15.23
2018-02-16T11:00:01.438Z,11.97
2018-02-16T11:02:35.170Z,11.70
2018-02-16T11:05:14.755Z,18.57
2018-02-16T11:07:48.470Z,13.57
2018-02-16T11:10:16.738Z,13.90
2018-02-16T11:12:44.997Z,16.40
2018-02-16T11:15:13.296Z,13.97
2018-02-16T11:17:41.729Z,12.37
2018-02-16T11:20:09.301Z,13.37
2018-02-16T11:22:38.166Z,11.50
2018-02-16T11:25:11.169Z,11.20
2018-02-16T11:27:39.430Z,11.60
2018-02-16T11:30:13.470Z,11.60
2018-02-16T11:32:41.734Z,13.50
2018-02-16T11:35:14.305Z,13.73
2018-02-16T11:37:42.565Z,12.40
2018-02-16T11:40:16.252Z,14.13
2018-02-16T11:42:44.527Z,12.03
2018-02-16T11:45:12.925Z,14.73
2018-02-16T11:47:41.841Z,33.50
2018-02-16T11:50:16.366Z,9.63
2018-02-16T11:52:44.802Z,12.07
2018-02-16T11:55:13.074Z,16.87
2018-02-16T11:57:41.319Z,6.80
2018-02-16T12:00:15.266Z,9.50
2018-02-16T12:02:43.536Z,11.60
2018-02-16T12:05:15.702Z,9.00
2018-02-16T12:07:43.969Z,12.30
2018-02-16T12:10:12.447Z,10.37
2018-02-16T12:12:40.703Z,10.67
2018-02-16T12:15:11.365Z,11.83
2018-02-16T12:17:39.645Z,10.47
2018-02-16T12:20:12.414Z,17.23
2018-02-16T12:22:40.778Z,12.13
2018-02-16T12:25:11.638Z,13.87
2018-02-16T12:27:39.897Z,17.87
2018-02-16T12:30:11.651Z,13.90
2018-02-16T12:32:39.931Z,17.33
2018-02-16T12:35:15.563Z,12.53
2018-02-16T12:37:43.817Z,13.47
2018-02-16T12:40:12.386Z,14.70
2018-02-16T12:42:40.651Z,15.57
2018-02-16T12:45:13.218Z,13.77
2018-02-16T12:47:41.198Z,15.47
2018-02-16T12:50:12.722Z,14.77
2018-02-16T12:52:40.997Z,13.27
2018-02-16T12:55:15.881Z,15.17
2018-02-16T12:57:44.133Z,14.30
2018-02-16T13:00:15.670Z,14.87
2018-02-16T13:02:43.953Z,14.23
2018-02-16T13:05:12.448Z,17.80
2018-02-16T13:07:40.707Z,16.40
2018-02-16T13:10:15.290Z,15.10
2018-02-16T13:12:43.571Z,17.93
2018-02-16T13:15:12.542Z,16.70
2018-02-16T13:17:40.799Z,16.83
2018-02-16T13:20:16.132Z,14.97
2018-02-16T13:22:44.395Z,12.37
2018-02-16T13:25:12.724Z,15.60
2018-02-16T13:27:41.778Z,15.40
2018-02-16T13:30:09.417Z,15.57
2018-02-16T13:32:38.628Z,20.90
2018-02-16T13:35:12.150Z,12.40
2018-02-16T13:37:40.406Z,15.93
2018-02-16T13:40:15.622Z,12.70
2018-02-16T13:42:43.886Z,14.70
2018-02-16T13:45:14.474Z,14.27
2018-02-16T13:47:42.725Z,16.43
2018-02-16T13:50:13.286Z,17.40
2018-02-16T13:52:42.323Z,16.13
2018-02-16T13:55:15.680Z,18.67
2018-02-16T13:57:43.950Z,16.40
2018-02-16T14:00:15.954Z,16.13
2018-02-16T14:02:44.225Z,17.87
2018-02-16T14:05:16.741Z,19.13
2018-02-16T14:07:45.015Z,17.37
2018-02-16T14:10:13.930Z,16.70
2018-02-16T14:12:42.189Z,16.43
2018-02-16T14:15:15.477Z,15.70
2018-02-16T14:17:43.735Z,17.40
2018-02-16T14:20:13.166Z,15.93
2018-02-16T14:22:41.433Z,17.67
2018-02-16T14:25:12.511Z,21.10
2018-02-16T14:27:40.773Z,15.10
2018-02-16T14:30:14.784Z,14.13
2018-02-16T14:32:43.038Z,17.53
2018-02-16T14:35:13.095Z,15.00
2018-02-16T14:37:41.353Z,17.13
2018-02-16T14:40:12.333Z,17.00
2018-02-16T14:42:40.597Z,15.83
2018-02-16T14:45:12.757Z,15.13
2018-02-16T14:47:41.202Z,15.80
2018-02-16T14:50:12.875Z,14.27
2018-02-16T14:52:41.135Z,14.40
2018-02-16T14:55:14.721Z,14.07
2018-02-16T14:57:42.977Z,16.70
2018-02-16T15:00:11.583Z,18.20
2018-02-16T15:02:39.846Z,18.07
2018-02-16T15:05:12.393Z,14.03
2018-02-16T15:07:40.651Z,16.33
2018-02-16T15:10:12.515Z,13.77
2018-02-16T15:12:40.761Z,16.57
2018-02-16T15:15:14.573Z,17.63
2018-02-16T15:17:42.844Z,11.77
2018-02-16T15:20:11.282Z,13.00
2018-02-16T15:22:39.537Z,11.77
2018-02-16T15:25:10.571Z,14.00
2018-02-16T15:27:38.822Z,30.90
2018-02-16T15:30:15.795Z,11.37
2018-02-16T15:32:44.065Z,14.20
2018-02-16T15:35:12.377Z,34.40
2018-02-16T15:37:40.650Z,14.87
2018-02-16T15:40:12.725Z,15.10
2018-02-16T15:42:40.988Z,31.43
2018-02-16T15:45:14.977Z,17.53
2018-02-16T15:47:43.237Z,24.73
2018-02-16T15:50:12.697Z,17.17
2018-02-16T15:52:40.953Z,15.20
2018-02-16T15:55:15.537Z,19.93
2018-02-16T15:57:43.806Z,18.03
2018-02-16T16:00:12.062Z,20.13
2018-02-16T16:02:40.133Z,20.10
2018-02-16T16:05:10.827Z,16.80
2018-02-16T16:07:39.091Z,17.37
2018-02-16T16:10:10.850Z,23.80
2018-02-16T16:12:39.105Z,14.97
2018-02-16T16:15:09.087Z,17.53
2018-02-16T16:17:37.363Z,23.00
2018-02-16T16:20:10.558Z,17.60
2018-02-16T16:22:38.815Z,17.60
2018-02-16T16:25:12.233Z,17.40
2018-02-16T16:27:40.490Z,17.70
2018-02-16T16:30:12.891Z,22.57
2018-02-16T16:32:41.142Z,20.27
2018-02-16T16:35:09.401Z,16.50
2018-02-16T16:37:37.666Z,17.00
2018-02-16T16:40:08.405Z,17.80
2018-02-16T16:42:36.686Z,20.20
2018-02-16T16:45:10.718Z,15.87
2018-02-16T16:47:38.985Z,14.80
2018-02-16T16:50:11.493Z,20.90
2018-02-16T16:52:39.774Z,17.33
2018-02-16T16:55:09.075Z,17.83
2018-02-16T16:57:37.330Z,20.23
2018-02-16T17:00:07.418Z,17.13
2018-02-16T17:02:35.709Z,24.60
2018-02-16T17:05:03.944Z,20.43
2018-02-16T17:07:32.197Z,21.77
2018-02-16T17:10:00.497Z,15.27
2018-02-16T17:12:28.756Z,17.20
2018-02-16T17:14:57.010Z,18.23
2018-02-16T17:17:25.278Z,16.13
2018-02-16T17:19:53.562Z,16.20
2018-02-16T17:22:21.831Z,19.10
2018-02-16T17:24:50.106Z,16.87
2018-02-16T17:27:18.370Z,20.90
2018-02-16T17:29:46.621Z,17.90
2018-02-16T17:32:15.713Z,26.83
2018-02-16T17:34:43.965Z,36.37
2018-02-16T17:37:12.263Z,28.77
2018-02-16T17:39:40.521Z,32.80
2018-02-16T17:42:08.779Z,29.37
2018-02-16T17:44:37.034Z,22.97
2018-02-16T17:47:05.306Z,45.13
2018-02-16T17:49:33.569Z,55.37
2018-02-16T17:52:01.834Z,62.43
2018-02-16T17:54:30.099Z,64.53
2018-02-16T17:56:58.347Z,60.00
2018-02-16T17:59:26.613Z,64.43
2018-02-16T18:01:54.877Z,74.20
2018-02-16T18:04:23.138Z,64.50
2018-02-16T18:06:51.397Z,80.90
2018-02-16T18:09:19.657Z,69.97
2018-02-16T18:11:47.923Z,71.87
2018-02-16T18:14:16.200Z,85.27
2018-02-16T18:16:44.463Z,78.13
2018-02-16T18:19:12.718Z,78.87
2018-02-16T18:21:40.986Z,97.83
2018-02-16T18:24:09.261Z,82.20
2018-02-16T18:26:37.529Z,80.73
2018-02-16T18:29:05.781Z,91.10
2018-02-16T18:31:34.034Z,71.47
2018-02-16T18:34:02.299Z,77.37
2018-02-16T18:36:30.378Z,79.63
2018-02-16T18:38:58.635Z,84.80
2018-02-16T18:41:26.901Z,84.63
2018-02-16T18:43:55.158Z,76.87
2018-02-16T18:46:23.413Z,95.37
2018-02-16T18:48:51.694Z,75.93
2018-02-16T18:51:19.950Z,92.20
2018-02-16T18:53:48.230Z,89.37
2018-02-16T18:56:16.479Z,77.43
2018-02-16T18:58:44.747Z,78.73
2018-02-16T19:01:13.022Z,72.67
2018-02-16T19:03:41.278Z,84.47
2018-02-16T19:06:09.546Z,85.67
2018-02-16T19:08:38.018Z,77.33
2018-02-16T19:11:05.971Z,75.53
2018-02-16T19:13:34.218Z,81.93
2018-02-16T19:16:02.483Z,73.47
2018-02-16T19:18:30.742Z,84.53
2018-02-16T19:20:59.004Z,81.23
2018-02-16T19:23:27.271Z,72.20
2018-02-16T19:25:55.522Z,89.77
2018-02-16T19:28:23.790Z,75.13
2018-02-16T19:30:52.040Z,71.77
2018-02-16T19:33:20.308Z,71.53
2018-02-16T19:35:48.566Z,85.00
2018-02-16T19:38:16.837Z,64.10
2018-02-16T19:40:45.094Z,74.10
2018-02-16T19:43:13.350Z,76.87
2018-02-16T19:45:41.606Z,79.77
2018-02-16T19:48:09.862Z,77.30
2018-02-16T19:50:38.131Z,78.43
2018-02-16T19:53:06.386Z,64.13
2018-02-16T19:55:34.654Z,69.80
2018-02-16T19:58:02.912Z,85.03
2018-02-16T20:00:31.162Z,95.37
2018-02-16T20:02:59.421Z,75.50
2018-02-16T20:05:27.695Z,80.73
2018-02-16T20:07:55.954Z,80.20
2018-02-16T20:10:24.221Z,77.90
2018-02-16T20:12:53.039Z,78.73
2018-02-16T20:15:21.314Z,78.53
2018-02-16T20:17:49.570Z,83.00
2018-02-16T20:20:17.821Z,87.17
2018-02-16T20:22:46.121Z,73.83
2018-02-16T20:25:14.389Z,68.70
2018-02-16T20:27:42.658Z,83.50
2018-02-16T20:30:13.371Z,77.10
2018-02-16T20:32:41.630Z,74.50
2018-02-16T20:35:12.884Z,74.03
2018-02-16T20:37:41.162Z,78.00
2018-02-16T20:40:09.235Z,72.47
2018-02-16T20:42:37.485Z,87.17
2018-02-16T20:45:06.019Z,72.97
2018-02-16T20:47:34.276Z,68.90
2018-02-16T20:50:02.555Z,78.97
2018-02-16T20:52:30.808Z,85.40
2018-02-16T20:54:59.077Z,83.97
2018-02-16T20:57:27.334Z,79.13
2018-02-16T20:59:55.595Z,79.30
2018-02-16T21:02:23.853Z,78.50
2018-02-16T21:04:52.122Z,76.93
2018-02-16T21:07:20.390Z,74.07
2018-02-16T21:09:48.487Z,72.97
2018-02-16T21:12:16.751Z,72.93
2018-02-16T21:14:45.014Z,84.90
2018-02-16T21:17:13.290Z,71.20
2018-02-16T21:19:41.557Z,85.93
2018-02-16T21:22:09.822Z,95.07
2018-02-16T21:24:38.096Z,81.67
2018-02-16T21:27:06.373Z,87.30
2018-02-16T21:29:34.626Z,82.83
2018-02-16T21:32:02.908Z,74.13
2018-02-16T21:34:31.169Z,79.40
2018-02-16T21:36:59.519Z,70.70
2018-02-16T21:39:27.593Z,78.57
2018-02-16T21:41:55.849Z,73.87
2018-02-16T21:44:24.106Z,77.63
2018-02-16T21:46:52.357Z,80.73
2018-02-16T21:49:20.618Z,83.87
2018-02-16T21:51:48.870Z,84.33
2018-02-16T21:54:17.121Z,83.30
2018-02-16T21:56:45.387Z,82.10
2018-02-16T21:59:13.653Z,94.00
2018-02-16T22:01:41.929Z,83.37
2018-02-16T22:04:10.189Z,77.80
2018-02-16T22:06:38.450Z,86.93
2018-02-16T22:09:06.716Z,83.87
2018-02-16T22:11:34.973Z,78.20
2018-02-16T22:14:03.268Z,85.13
2018-02-16T22:16:31.521Z,86.90
2018-02-16T22:18:59.769Z,81.83
2018-02-16T22:21:28.041Z,79.53
2018-02-16T22:23:56.295Z,85.87
2018-02-16T22:26:24.381Z,79.33
2018-02-16T22:28:52.645Z,83.47
2018-02-16T22:31:20.899Z,79.47
2018-02-16T22:33:49.168Z,81.33
2018-02-16T22:36:17.426Z,86.90
2018-02-16T22:38:45.693Z,74.30
2018-02-16T22:41:13.965Z,85.23
2018-02-16T22:43:42.250Z,100.40
2018-02-16T22:46:10.517Z,78.87
2018-02-16T22:48:38.798Z,71.87
2018-02-16T22:51:07.076Z,87.57
2018-02-16T22:53:35.341Z,88.60
2018-02-16T22:56:03.409Z,89.80
2018-02-16T22:58:31.670Z,81.00
2018-02-16T23:00:59.934Z,88.13
2018-02-16T23:03:28.189Z,75.10
2018-02-16T23:05:56.445Z,76.73
2018-02-16T23:08:24.698Z,85.10
2018-02-16T23:10:52.953Z,97.90
2018-02-16T23:13:21.210Z,75.57
2018-02-16T23:15:49.470Z,73.53
2018-02-16T23:18:17.729Z,77.43
2018-02-16T23:20:45.998Z,67.97
2018-02-16T23:23:14.253Z,78.97
2018-02-16T23:25:42.509Z,75.27
2018-02-16T23:28:10.773Z,70.57
2018-02-16T23:30:39.027Z,74.67
2018-02-16T23:33:07.286Z,81.67
2018-02-16T23:35:35.807Z,76.20
2018-02-16T23:38:04.078Z,78.53
2018-02-16T23:40:32.333Z,77.80
2018-02-16T23:43:00.543Z,83.40
2018-02-16T23:45:28.803Z,84.93
2018-02-16T23:47:57.059Z,84.40
2018-02-16T23:50:25.321Z,92.17
2018-02-16T23:52:53.598Z,84.13
2018-02-16T23:55:21.874Z,80.73
2018-02-16T23:57:50.150Z,80.60
